Архив погоды в Опарино

Метеограмма Опарино
Вторник, 25 Июня
Время местн. Темп Ветер Видим Явления Облачность нижн/средн/верх Атм. давл. Влжн Точка росы ВНГО R Сост. почвы Tg s
Напр Скр Прв ур.ст ур.м изм
06:00 +10.2° С-З 2 4 50 км - преимущественно облачно 749 765 +0.6 89% +8.5° 1 км - Сухая (без трещин) - -
03:00 +8.4° З,С-З 2 3 50 км - облачно с прояснениями 749 765 +0.5 97% +8° 1 км - - - -
00:00 +9.8° З 2 2 50 км - переменная облачность 748 764 +0.3 80% +6.5° 1 км - - - -
Понедельник, 24 Июня
Время местн. Темп Ветер Видим Явления Облачность нижн/средн/верх Атм. давл. Влжн Точка росы ВНГО R Сост. почвы Tg s
Напр Скр Прв ур.ст ур.м изм
21:00 +12.8° С-З 2 4 50 км - переменная облачность 748 764 +0.3 71% +7.7° 1 км - - - -
18:00 +18° С,С-З 3 5 50 км - облачно с прояснениями 747 763 +0.3 48% +6.8° 1 км - - - -
15:00 +19.4° З 3 5 50 км - облачно с прояснениями 747 763 +0.2 34% +3.2° 1 км - - - -
12:00 +20.1° З,С-З 4 8 50 км - облачно с прояснениями 747 763 -0.1 38% +5.3° 1 км - - - -
09:00 +18.6° З 2 4 50 км - переменная облачность 747 763 0 45% +6.5° более 2.5 км - - - -
06:00 +14.1° З,С-З 1 2 50 км - незначительная облачность 747 763 +0.8 69% +8.4° более 2.5 км - Сухая (без трещин) - -
03:00 +11.2° З 1 2 50 км - переменная облачность 746 762 +0.6 83% +8.4° - - - - -
00:00 +13.2° З 1 2 50 км - облачно с прояснениями 746 762 +0.5 75% +8.8° - - - - -
Воскресенье, 23 Июня
Время местн. Темп Ветер Видим Явления Облачность нижн/средн/верх Атм. давл. Влжн Точка росы ВНГО R Сост. почвы Tg s
Напр Скр Прв ур.ст ур.м изм
21:00 +17.8° З 1 2 50 км - переменная облачность 745 761 +0.5 59% +9.7° более 2.5 км - - - -
18:00 +22.7° З 3 6 50 км - ясно 745 760 +0.2 38% +7.6° более 2.5 км - - - -
15:00 +22.8° З,С-З 3 7 50 км - переменная облачность 744 761 +0.5 38% +7.7° 1.5 км - - - -
12:00 +21.7° З 5 7 50 км - переменная облачность 744 759 +0.6 45% +9.2° 1.5 км - - - -
09:00 +21.3° С-З 3 5 50 км - облачно с прояснениями 743 759 +1.4 71% +15.9° 1.5 км - - - -
06:00 +18.2° З 2 3 50 км - облачно 742 758 +0.6 94% +17.2° 1 км - Влажная (без луж) - -
03:00 +17.4° З 2 3 50 км небо без изменений {ливневые осадки} переменная облачность 741 757 +0.5 96% +16.7° 1 км - - - -
00:00 +19° З 1 2 50 км ливневый дождь облачно с прояснениями 741 756 -0.3 95% +18.1° 1 км - - - -
Суббота, 22 Июня
Время местн. Темп Ветер Видим Явления Облачность нижн/средн/верх Атм. давл. Влжн Точка росы ВНГО R Сост. почвы Tg s
Напр Скр Прв ур.ст ур.м изм
21:00 +21° Ю-З 1 2 50 км - преимущественно облачно 741 757 -0.7 85% +18.4° 1 км - - - -
18:00 +23.5° Ю,Ю-З 2 4 50 км - облачно с прояснениями 742 757 -1.2 69% +17.4° 1 км - - - -
15:00 +23.2° Ю-З 4 8 50 км небо без изменений {ливневые осадки} облачно с прояснениями 743 759 -0.5 68% +17° более 2.5 км - - - -
12:00 +25.6° З,Ю-З 4 8 50 км - облачно с прояснениями 744 759 -0.7 51% +14.6° 1 км - - - -
09:00 +23.4° Ю,Ю-З 3 5 50 км - облачно с прояснениями 744 760 -1.4 60% +15.1° более 2.5 км - - - -
06:00 +18.4° Ю 2 5 50 км - преимущественно облачно 746 761 -0.8 74% +13.6° 1 км - Сухая (без трещин) - -
03:00 +14.4° Ю,Ю-В 1 2 50 км - облачно с прояснениями 746 762 -0.3 88% +12.4° 1 км - - - -